Time;durP1;ratioP1;P1;durP2;ratioP2;P2;SDS_P1;SDS_P2;PMS_P1;PMS_P2;Temp;Humidity;BMP_temperature;BMP_pressure;BME280_temperature;BME280_humidity;BME280_pressure;Samples;Min_cycle;Max_cycle;Signal;HPM_P1;HPM_P2
2021/12/11 00:01:37;;;;;;;12.98;4.60;;;;;;;0.64;100.00;98860.44;5035751;28;20072;-75
2021/12/11 00:04:06;;;;;;;11.95;4.30;;;;;;;0.65;100.00;98859.56;5035902;28;20033;-75
2021/12/11 00:06:36;;;;;;;10.73;4.40;;;;;;;0.61;100.00;98864.75;5035808;28;20034;-75
2021/12/11 00:09:13;;;;;;;9.85;4.30;;;;;;;0.61;100.00;98873.34;5035759;28;20057;-75
2021/12/11 00:11:44;;;;;;;8.30;3.92;;;;;;;0.63;100.00;98876.75;5036006;28;20353;-75
2021/12/11 00:14:11;;;;;;;9.48;4.35;;;;;;;0.63;100.00;98884.47;5035977;28;20116;-76
2021/12/11 00:16:40;;;;;;;10.15;3.75;;;;;;;0.61;100.00;98888.78;5035157;28;20052;-74
2021/12/11 00:19:15;;;;;;;12.35;4.70;;;;;;;0.58;100.00;98893.97;5035262;28;20369;-75
2021/12/11 00:21:41;;;;;;;12.18;5.60;;;;;;;0.57;100.00;98902.56;5035543;28;20021;-74
2021/12/11 00:24:18;;;;;;;7.55;3.85;;;;;;;0.55;100.00;98912.00;5035535;28;20026;-75
2021/12/11 00:26:51;;;;;;;14.50;4.15;;;;;;;0.58;100.00;98916.28;5035363;28;20040;-75
2021/12/11 00:29:21;;;;;;;10.85;4.15;;;;;;;0.59;100.00;98918.84;5035078;28;20030;-75
2021/12/11 00:31:51;;;;;;;9.40;3.85;;;;;;;0.53;100.00;98933.50;5035311;28;20037;-74
2021/12/11 00:34:19;;;;;;;13.57;4.00;;;;;;;0.52;100.00;98935.22;5034994;28;20434;-75
2021/12/11 00:36:53;;;;;;;8.70;3.85;;;;;;;0.53;100.00;98929.19;5034794;28;20391;-75
2021/12/11 00:39:19;;;;;;;6.50;3.42;;;;;;;0.60;100.00;98937.72;5035212;28;20029;-75
2021/12/11 00:41:52;;;;;;;10.68;4.53;;;;;;;0.52;100.00;98934.38;5035409;28;20040;-75
2021/12/11 00:44:18;;;;;;;12.20;4.68;;;;;;;0.46;100.00;98944.72;5034901;28;20044;-75
2021/12/11 00:46:44;;;;;;;8.77;3.55;;;;;;;0.52;100.00;98944.66;5035014;28;20029;-76
2021/12/11 00:49:12;;;;;;;8.48;3.95;;;;;;;0.46;100.00;98948.16;5034780;28;20029;-75
2021/12/11 00:51:38;;;;;;;8.68;3.38;;;;;;;0.51;100.00;98961.81;5034741;28;20033;-75
2021/12/11 00:54:04;;;;;;;14.32;5.13;;;;;;;0.47;100.00;98956.72;5033729;28;20518;-75
2021/12/11 00:56:35;;;;;;;10.15;3.92;;;;;;;0.54;100.00;98960.94;5034784;28;20071;-76
2021/12/11 00:59:04;;;;;;;10.65;4.35;;;;;;;0.50;100.00;98972.13;5017153;28;20037;-76
2021/12/11 01:01:44;;;;;;;12.95;4.85;;;;;;;0.52;100.00;98973.84;5034957;28;20021;-75
2021/12/11 01:04:17;;;;;;;10.65;4.63;;;;;;;0.54;100.00;98982.41;5034676;28;20451;-75
2021/12/11 01:07:05;;;;;;;9.98;4.53;;;;;;;0.48;100.00;98992.75;5034837;28;20349;-75
2021/12/11 01:09:40;;;;;;;10.57;4.43;;;;;;;0.44;100.00;98997.94;5023869;28;20368;-75
2021/12/11 01:12:13;;;;;;;12.50;4.63;;;;;;;0.49;100.00;99007.31;5034512;28;20112;-75
2021/12/11 01:14:51;;;;;;;8.77;3.95;;;;;;;0.47;100.00;99008.19;4985366;28;20041;-75
2021/12/11 01:17:24;;;;;;;8.93;4.20;;;;;;;0.48;100.00;99015.06;5034295;28;20033;-75
2021/12/11 01:19:59;;;;;;;10.52;5.20;;;;;;;0.49;100.00;99021.91;5034198;28;20124;-74
2021/12/11 01:22:34;;;;;;;10.27;4.07;;;;;;;0.43;100.00;99024.53;5034311;28;20026;-75
2021/12/11 01:25:08;;;;;;;9.48;3.70;;;;;;;0.42;100.00;99043.41;5016438;28;20034;-74
2021/12/11 01:27:38;;;;;;;9.52;4.50;;;;;;;0.43;100.00;99053.72;5034350;28;20033;-75
2021/12/11 01:30:09;;;;;;;12.25;4.97;;;;;;;0.41;100.00;99060.59;5034328;28;20459;-74
2021/12/11 01:32:36;;;;;;;10.25;4.47;;;;;;;0.37;100.00;99066.66;5034130;28;20081;-75
2021/12/11 01:35:05;;;;;;;12.50;4.07;;;;;;;0.29;100.00;99073.56;5034360;28;20104;-74
2021/12/11 01:37:34;;;;;;;13.52;5.05;;;;;;;0.29;100.00;99082.16;5016217;28;20121;-74
2021/12/11 01:40:04;;;;;;;10.38;4.25;;;;;;;0.26;100.00;99087.31;5034308;28;20075;-75
2021/12/11 01:42:33;;;;;;;12.45;4.00;;;;;;;0.24;100.00;99094.19;5034012;28;20060;-75
2021/12/11 01:45:00;;;;;;;15.35;4.63;;;;;;;0.19;100.00;99101.06;5016110;28;20155;-74
2021/12/11 01:47:29;;;;;;;11.07;4.55;;;;;;;0.17;100.00;99099.38;5033939;28;20478;-74
2021/12/11 01:49:58;;;;;;;15.25;4.63;;;;;;;0.20;100.00;99114.78;5032627;28;20356;-74
2021/12/11 01:52:32;;;;;;;9.05;4.13;;;;;;;0.14;100.00;99113.09;5033363;28;20116;-75
2021/12/11 01:54:59;;;;;;;11.20;4.50;;;;;;;0.16;100.00;99115.66;5033817;28;20109;-74
2021/12/11 01:57:28;;;;;;;12.88;4.90;;;;;;;0.13;100.00;99126.84;5033604;28;20423;-74
2021/12/11 01:59:59;;;;;;;10.27;4.20;;;;;;;0.09;100.00;99124.28;5033638;28;20030;-74
2021/12/11 02:02:33;;;;;;;13.05;4.38;;;;;;;0.08;100.00;99136.28;5033579;28;20037;-74
2021/12/11 02:04:58;;;;;;;11.25;5.20;;;;;;;0.03;100.00;99138.03;5033126;28;20395;-74
2021/12/11 02:07:35;;;;;;;14.63;4.90;;;;;;;-0.03;100.00;99140.66;5033175;28;20029;-74
2021/12/11 02:10:01;;;;;;;;;;;;;;;-0.06;100.00;99151.81;5034030;28;20385;-74
2021/12/11 02:12:34;;;;;;;13.40;5.13;;;;;;;-0.12;100.00;99153.56;5033785;28;19913;-74
2021/12/11 02:15:03;;;;;;;11.77;5.55;;;;;;;-0.23;100.00;99160.44;5015714;28;20029;-74
2021/12/11 02:17:44;;;;;;;9.13;4.57;;;;;;;-0.29;100.00;99170.75;5033411;28;20372;-74
2021/12/11 02:20:14;;;;;;;10.95;5.35;;;;;;;-0.29;100.00;99174.19;5033349;28;20524;-74
2021/12/11 02:22:48;;;;;;;10.63;4.93;;;;;;;-0.28;100.00;99177.59;5033320;28;20033;-75
2021/12/11 02:25:18;;;;;;;11.55;5.50;;;;;;;-0.32;100.00;99187.03;5033241;28;20033;-75
2021/12/11 02:28:12;;;;;;;17.10;5.60;;;;;;;-0.38;100.00;99192.22;5032967;28;20033;-75
2021/12/11 02:31:05;;;;;;;11.88;5.15;;;;;;;-0.40;100.00;99186.22;4996839;28;20116;-75
2021/12/11 02:33:44;;;;;;;12.15;5.93;;;;;;;-0.56;100.00;99203.38;5032932;28;20025;-75
2021/12/11 02:36:18;;;;;;;11.88;5.15;;;;;;;-0.61;100.00;99193.97;5033468;28;20371;-75
2021/12/11 02:38:57;;;;;;;12.45;5.88;;;;;;;-0.65;100.00;99199.97;5032993;28;20056;-75
2021/12/11 02:41:25;;;;;;;14.20;5.47;;;;;;;-0.54;100.00;99201.66;5031383;28;20045;-75
2021/12/11 02:44:02;;;;;;;16.00;4.97;;;;;;;-0.62;100.00;99211.09;5031767;28;20030;-75
2021/12/11 02:46:37;;;;;;;15.07;5.10;;;;;;;-0.55;100.00;99210.25;5033020;28;20025;-75
2021/12/11 02:49:15;;;;;;;19.33;6.18;;;;;;;-0.64;100.00;99222.25;5033152;28;20036;-74
2021/12/11 02:51:49;;;;;;;16.17;6.93;;;;;;;-0.77;100.00;99222.28;5015392;28;20045;-75
2021/12/11 02:54:36;;;;;;;9.43;4.55;;;;;;;-0.81;100.00;99224.84;5031783;28;20052;-75
2021/12/11 02:57:10;;;;;;;12.13;5.32;;;;;;;-0.85;100.00;99226.56;5032573;28;20412;-75
2021/12/11 02:59:43;;;;;;;13.38;5.78;;;;;;;-0.88;100.00;99225.69;5033038;28;20032;-75
2021/12/11 03:02:14;;;;;;;21.08;6.38;;;;;;;-1.00;100.00;99231.69;5015216;28;20112;-75
2021/12/11 03:04:49;;;;;;;15.93;6.72;;;;;;;-0.95;100.00;99236.81;5033027;28;20029;-75
2021/12/11 03:07:16;;;;;;;16.30;5.93;;;;;;;-1.08;100.00;99233.38;5032736;28;20037;-75
2021/12/11 03:09:56;;;;;;;16.63;5.80;;;;;;;-1.07;100.00;99232.53;5032623;28;20370;-75
2021/12/11 03:12:27;;;;;;;16.38;5.97;;;;;;;-1.09;100.00;99237.66;5033002;28;20033;-75
2021/12/11 03:14:53;;;;;;;12.60;5.53;;;;;;;-1.11;100.00;99248.78;4997254;28;20029;-75
2021/12/11 03:17:20;;;;;;;15.18;6.72;;;;;;;-1.21;100.00;99250.50;5020612;28;20041;-75
2021/12/11 03:19:46;;;;;;;15.30;6.60;;;;;;;-1.19;100.00;99246.22;5018804;28;20030;-74
2021/12/11 03:22:20;;;;;;;13.90;6.18;;;;;;;-1.15;100.00;99254.78;5036533;28;20483;-74
2021/12/11 03:24:46;;;;;;;14.65;5.95;;;;;;;-1.07;100.00;99259.06;5035324;28;20392;-75
2021/12/11 03:27:11;;;;;;;;;;;;;;;-0.99;100.00;99258.22;5037026;28;20035;-75
2021/12/11 03:29:37;;;;;;;18.25;5.75;;;;;;;-0.94;100.00;99266.78;5036326;28;19992;-75
2021/12/11 03:32:13;;;;;;;20.77;6.80;;;;;;;-0.96;100.00;99278.75;5036703;28;20107;-75
2021/12/11 03:34:41;;;;;;;18.63;7.78;;;;;;;-0.93;100.00;99282.19;5036665;28;20429;-75
2021/12/11 03:37:12;;;;;;;24.80;6.97;;;;;;;-0.99;100.00;99292.47;5034867;28;20032;-75
2021/12/11 03:39:41;;;;;;;21.65;7.35;;;;;;;-0.97;100.00;99293.31;5018063;28;20025;-75
2021/12/11 03:42:24;;;;;;;20.08;7.90;;;;;;;-0.91;100.00;99295.03;5036308;28;20057;-75
2021/12/11 03:44:50;;;;;;;23.10;7.38;;;;;;;-0.90;100.00;99304.47;5036319;28;20033;-75
2021/12/11 03:47:24;;;;;;;16.67;6.82;;;;;;;-0.79;100.00;99306.19;5036248;28;20021;-75
2021/12/11 03:49:49;;;;;;;22.20;7.72;;;;;;;-0.72;100.00;99307.88;5036172;28;20065;-75
2021/12/11 03:52:16;;;;;;;18.02;8.25;;;;;;;-0.84;100.00;99309.63;5035793;28;20095;-75
2021/12/11 03:54:46;;;;;;;16.80;7.13;;;;;;;-0.80;100.00;99311.34;5035687;28;20456;-75
2021/12/11 03:57:15;;;;;;;22.33;6.88;;;;;;;-0.86;100.00;99311.31;5035901;28;20037;-75
2021/12/11 03:59:42;;;;;;;18.25;7.32;;;;;;;-0.80;100.00;99313.91;5035847;28;20032;-75
2021/12/11 04:02:11;;;;;;;15.05;6.25;;;;;;;-0.97;100.00;99329.28;5035825;28;20029;-75
2021/12/11 04:04:44;;;;;;;15.85;6.05;;;;;;;-0.89;100.00;99319.88;5035733;28;20415;-75
2021/12/11 04:07:14;;;;;;;15.48;6.70;;;;;;;-0.80;100.00;99327.59;5035533;28;20533;-75
2021/12/11 04:09:41;;;;;;;17.77;6.55;;;;;;;-0.93;100.00;99338.72;5035733;28;20404;-75
2021/12/11 04:12:08;;;;;;;16.90;6.53;;;;;;;-0.92;100.00;99337.84;5035766;28;20036;-75
2021/12/11 04:14:37;;;;;;;16.00;6.78;;;;;;;-0.95;100.00;99347.25;5035715;28;20034;-75
2021/12/11 04:17:06;;;;;;;13.57;6.38;;;;;;;-0.86;100.00;99348.16;5035538;28;20041;-75
2021/12/11 04:19:32;;;;;;;17.30;7.60;;;;;;;-0.91;100.00;99352.41;5035348;28;20033;-75
2021/12/11 04:21:59;;;;;;;19.52;7.07;;;;;;;-0.84;100.00;99364.41;5035256;28;20029;-75
2021/12/11 04:24:28;;;;;;;16.60;6.47;;;;;;;-0.84;100.00;99361.84;5035462;28;20124;-75
2021/12/11 04:26:57;;;;;;;16.35;6.78;;;;;;;-0.98;100.00;99366.09;5035026;28;20097;-75
2021/12/11 04:29:23;;;;;;;23.13;7.72;;;;;;;-1.07;100.00;99366.91;5034067;28;20039;-75
2021/12/11 04:31:49;;;;;;;19.38;7.32;;;;;;;-1.10;100.00;99371.19;5035422;28;20100;-75
2021/12/11 04:34:18;;;;;;;16.45;7.07;;;;;;;-1.07;100.00;99376.31;5035317;28;20057;-75
2021/12/11 04:36:47;;;;;;;17.33;7.63;;;;;;;-1.13;100.00;99377.19;5035096;28;20037;-75
2021/12/11 04:39:18;;;;;;;18.52;7.53;;;;;;;-1.14;100.00;99372.06;5035272;28;20036;-75
2021/12/11 04:41:56;;;;;;;20.38;6.97;;;;;;;-1.10;100.00;99374.59;5035363;28;20159;-76
2021/12/11 04:44:34;;;;;;;21.58;7.10;;;;;;;-1.10;100.00;99374.59;5035170;28;20030;-75
2021/12/11 04:47:02;;;;;;;23.35;8.10;;;;;;;-1.02;100.00;99385.75;5035396;28;20033;-76
2021/12/11 04:49:38;;;;;;;23.48;8.20;;;;;;;-1.04;100.00;99384.03;5035034;28;20030;-75
2021/12/11 04:52:12;;;;;;;24.83;8.35;;;;;;;-0.98;100.00;99380.63;5033594;28;20033;-75
2021/12/11 04:55:11;;;;;;;20.77;8.77;;;;;;;-0.98;100.00;99385.78;5034892;28;20037;-75
2021/12/11 05:00:13;;;;;;;25.90;8.15;;;;;;;-1.05;100.00;99390.03;5034742;28;20038;-75
2021/12/11 05:08:00;;;;;;;17.50;6.93;;;;;;;-1.04;100.00;99404.59;5034814;28;20029;-76
2021/12/11 05:11:05;;;;;;;23.85;9.40;;;;;;;-1.14;100.00;99418.28;5033619;28;20551;-75
2021/12/11 05:13:23;;;;;;;23.08;7.40;;;;;;;-1.09;100.00;99429.38;4985097;28;20500;-76
2021/12/11 05:15:50;;;;;;;24.75;7.82;;;;;;;-1.07;100.00;99432.81;5034497;28;20025;-76
2021/12/11 05:18:22;;;;;;;25.83;9.30;;;;;;;-0.99;100.00;99431.16;5034414;28;20025;-76
2021/12/11 05:20:51;;;;;;;22.27;8.60;;;;;;;-1.02;100.00;99442.25;5034459;28;20033;-75
2021/12/11 05:23:16;;;;;;;21.48;8.02;;;;;;;-0.96;100.00;99436.28;5034059;28;20483;-75
2021/12/11 05:25:43;;;;;;;25.00;10.40;;;;;;;-0.93;100.00;99451.72;5034089;28;20041;-76
2021/12/11 05:28:09;;;;;;;22.90;9.75;;;;;;;-0.96;100.00;99464.56;5033992;28;20041;-76
2021/12/11 05:30:39;;;;;;;30.27;9.70;;;;;;;-0.94;100.00;99465.41;5034342;28;20033;-75
2021/12/11 05:33:05;;;;;;;22.60;9.30;;;;;;;-0.93;100.00;99472.28;5034146;28;20041;-76
2021/12/11 05:35:34;;;;;;;28.98;9.00;;;;;;;-0.91;100.00;99472.28;5034067;28;20083;-76
2021/12/11 05:38:00;;;;;;;22.95;8.45;;;;;;;-0.88;100.00;99474.88;5033964;28;20348;-76
2021/12/11 05:40:26;;;;;;;;;;;;;;;-0.91;100.00;99478.28;5034117;28;20464;-76
2021/12/11 05:42:52;;;;;;;26.83;9.20;;;;;;;-0.99;100.00;99484.22;5033786;28;20015;-76
2021/12/11 05:45:18;;;;;;;27.98;9.43;;;;;;;-0.99;100.00;99491.94;5033956;28;20076;-76
2021/12/11 05:47:43;;;;;;;32.55;10.50;;;;;;;-0.91;100.00;99492.84;5033817;28;20061;-75
2021/12/11 05:50:15;;;;;;;31.60;9.98;;;;;;;-0.89;100.00;99501.41;5016065;28;20124;-76
2021/12/11 05:52:41;;;;;;;30.25;11.15;;;;;;;-0.91;100.00;99505.66;5033711;28;20021;-76
2021/12/11 05:55:10;;;;;;;33.03;10.02;;;;;;;-0.85;100.00;99511.69;5033636;28;20068;-75
2021/12/11 05:57:37;;;;;;;35.80;10.45;;;;;;;-0.89;100.00;99521.94;5033552;28;20064;-75
2021/12/11 06:00:08;;;;;;;28.08;9.57;;;;;;;-0.82;100.00;99523.72;5033693;28;20037;-75
2021/12/11 06:02:34;;;;;;;34.13;9.63;;;;;;;-0.81;100.00;99528.00;5033370;28;20060;-76
2021/12/11 06:05:00;;;;;;;28.00;9.38;;;;;;;-0.72;100.00;99535.72;5033401;28;20460;-76
2021/12/11 06:07:27;;;;;;;;;;;;;;;-0.72;100.00;99539.16;5034238;28;20099;-76
2021/12/11 06:09:59;;;;;;;32.15;10.60;;;;;;;-0.69;100.00;99543.44;5015680;28;19921;-76
2021/12/11 06:12:28;;;;;;;31.25;10.38;;;;;;;-0.75;100.00;99549.44;5032191;28;20041;-75
2021/12/11 06:14:54;;;;;;;37.05;11.68;;;;;;;-0.80;100.00;99545.97;5031767;28;20112;-76
2021/12/11 06:17:24;;;;;;;;;;;;;;;-0.75;100.00;99554.59;5033781;28;20034;-76
2021/12/11 06:19:52;;;;;;;33.30;10.77;;;;;;;-0.79;100.00;99555.41;5033604;28;19917;-76
2021/12/11 06:22:21;;;;;;;30.23;10.38;;;;;;;-0.79;100.00;99565.69;5033447;28;20029;-76
2021/12/11 06:24:47;;;;;;;33.72;12.35;;;;;;;-0.79;100.00;99567.41;5033269;28;20769;-76
2021/12/11 06:27:13;;;;;;;35.92;10.82;;;;;;;-0.71;100.00;99560.56;5033622;28;20116;-76
2021/12/11 06:29:38;;;;;;;30.92;9.98;;;;;;;-0.76;100.00;99554.56;5033058;28;20456;-75
2021/12/11 06:32:04;;;;;;;42.13;11.70;;;;;;;-0.67;100.00;99568.28;5032954;28;20104;-76
2021/12/11 06:34:31;;;;;;;39.08;11.50;;;;;;;-0.61;100.00;99577.75;5033074;28;20464;-76
2021/12/11 06:36:57;;;;;;;31.13;11.05;;;;;;;-0.56;100.00;99578.63;5032981;28;20092;-76
2021/12/11 06:39:24;;;;;;;32.83;10.25;;;;;;;-0.58;100.00;99580.34;5033002;28;20459;-75
2021/12/11 06:41:54;;;;;;;28.38;11.50;;;;;;;-0.53;100.00;99581.22;5032880;28;20025;-75
2021/12/11 06:44:27;;;;;;;33.42;11.27;;;;;;;-0.50;100.00;99577.81;5032967;28;20032;-75
2021/12/11 06:46:54;;;;;;;28.55;9.30;;;;;;;-0.55;100.00;99594.91;5032757;28;20041;-75
2021/12/11 06:49:20;;;;;;;41.10;11.63;;;;;;;-0.44;100.00;99590.69;5032715;28;20037;-75
2021/12/11 06:51:45;;;;;;;37.05;11.07;;;;;;;-0.47;100.00;99596.66;5034291;28;20029;-75
2021/12/11 06:54:11;;;;;;;31.58;11.50;;;;;;;-0.50;100.00;99611.22;5019337;28;20057;-75
2021/12/11 06:56:38;;;;;;;37.10;12.32;;;;;;;-0.51;100.00;99610.38;5036792;28;20104;-75
2021/12/11 06:59:04;;;;;;;39.22;11.77;;;;;;;-0.54;100.00;99620.63;5036698;28;20047;-75
2021/12/11 07:04:55;;;;;;;26.88;10.57;;;;;;;-0.41;100.00;99632.69;5036876;28;20056;-75
2021/12/11 07:07:24;;;;;;;36.97;12.20;;;;;;;-0.42;100.00;99636.13;5036623;28;20041;-76
2021/12/11 07:09:52;;;;;;;34.45;12.05;;;;;;;-0.39;100.00;99645.56;5036595;28;20045;-75
2021/12/11 07:12:19;;;;;;;32.83;10.13;;;;;;;-0.24;100.00;99653.31;5036721;28;20037;-76
2021/12/11 07:14:45;;;;;;;28.73;9.60;;;;;;;-0.29;100.00;99649.88;4986248;28;20049;-75
2021/12/11 07:17:11;;;;;;;32.25;9.30;;;;;;;-0.26;100.00;99649.88;5036719;28;20103;-76
2021/12/11 07:19:36;;;;;;;37.33;12.00;;;;;;;-0.30;100.00;99650.72;5036774;28;20365;-76
2021/12/11 07:22:03;;;;;;;25.77;8.65;;;;;;;-0.27;100.00;99661.03;5036511;28;20029;-76
2021/12/11 07:24:36;;;;;;;34.10;11.57;;;;;;;-0.18;100.00;99673.06;5036669;28;20119;-76
2021/12/11 07:27:04;;;;;;;40.33;12.63;;;;;;;-0.18;100.00;99667.91;5035722;28;20041;-76
2021/12/11 07:29:31;;;;;;;36.72;11.60;;;;;;;-0.13;100.00;99679.09;5036400;28;20038;-76
2021/12/11 07:31:56;;;;;;;33.22;11.43;;;;;;;-0.13;100.00;99685.09;5036608;28;20036;-77
2021/12/11 07:34:22;;;;;;;46.88;12.73;;;;;;;-0.15;100.00;99680.78;5036330;28;20068;-76
2021/12/11 07:36:50;;;;;;;33.40;11.18;;;;;;;-0.12;100.00;99688.53;5036047;28;20045;-76
2021/12/11 07:39:18;;;;;;;30.20;12.75;;;;;;;-0.09;100.00;99684.25;5034968;28;20108;-76
2021/12/11 07:41:47;;;;;;;32.28;10.48;;;;;;;-0.13;100.00;99700.53;5036771;28;20595;-76
2021/12/11 07:44:13;;;;;;;30.50;10.77;;;;;;;-0.06;100.00;99709.13;5035978;28;20041;-75
2021/12/11 07:46:39;;;;;;;32.40;12.18;;;;;;;-0.01;100.00;99700.59;5036438;28;20506;-75
2021/12/11 07:49:06;;;;;;;33.60;10.70;;;;;;;-0.03;100.00;99706.59;5034833;28;20120;-75
2021/12/11 07:51:33;;;;;;;;;;;;;;;0.02;100.00;99711.72;5035133;28;20488;-75
2021/12/11 07:53:58;;;;;;;;;;;;;;;0.09;100.00;99718.63;5036746;28;20010;-75
2021/12/11 07:56:24;;;;;;;31.30;9.40;;;;;;;0.16;100.00;99721.22;5035806;28;19975;-75
2021/12/11 07:58:54;;;;;;;33.88;10.52;;;;;;;0.11;100.00;99732.34;5035905;28;20018;-75
2021/12/11 08:01:19;;;;;;;44.42;11.57;;;;;;;0.21;100.00;99734.13;5036243;28;20025;-75
2021/12/11 08:03:45;;;;;;;33.78;10.48;;;;;;;0.24;100.00;99734.97;5035514;28;20196;-75
2021/12/11 08:06:12;;;;;;;35.55;11.68;;;;;;;0.33;100.00;99741.88;5035784;28;20045;-75
2021/12/11 08:08:40;;;;;;;39.50;12.70;;;;;;;0.36;100.00;99735.88;5035346;28;20053;-76
2021/12/11 08:11:13;;;;;;;42.38;10.38;;;;;;;0.45;100.00;99748.78;5035909;28;20361;-76
2021/12/11 08:13:40;;;;;;;33.08;10.98;;;;;;;0.40;100.00;99746.19;5035681;28;20037;-75
2021/12/11 08:16:06;;;;;;;36.47;11.15;;;;;;;0.50;100.00;99752.22;5035629;28;20045;-75
2021/12/11 08:18:31;;;;;;;37.47;12.10;;;;;;;0.53;100.00;99755.66;5035569;28;20025;-75
2021/12/11 08:20:57;;;;;;;36.95;13.55;;;;;;;0.45;100.00;99749.63;5035879;28;20483;-74
2021/12/11 08:23:23;;;;;;;43.97;12.63;;;;;;;0.49;100.00;99760.81;5035591;28;20040;-74
2021/12/11 08:25:50;;;;;;;32.28;11.73;;;;;;;0.52;100.00;99761.66;5035368;28;20037;-74
2021/12/11 08:28:21;;;;;;;39.95;11.52;;;;;;;0.50;100.00;99763.38;5034273;28;20502;-75
2021/12/11 08:30:50;;;;;;;33.78;10.70;;;;;;;0.43;100.00;99773.66;5035560;28;20034;-75
2021/12/11 08:33:15;;;;;;;34.13;11.55;;;;;;;0.56;100.00;99772.84;5035317;28;20400;-75
2021/12/11 08:35:42;;;;;;;34.45;12.60;;;;;;;0.67;100.00;99781.47;5035103;28;20030;-74
2021/12/11 08:38:07;;;;;;;;;;;;;;;0.59;100.00;99772.84;5017813;28;20488;-74
2021/12/11 08:40:36;;;;;;;29.75;9.35;;;;;;;0.58;100.00;99782.28;5035326;28;19913;-74
2021/12/11 08:43:05;;;;;;;38.28;11.18;;;;;;;0.55;100.00;99784.84;5033933;28;20025;-75
2021/12/11 08:45:45;;;;;;;32.92;10.73;;;;;;;0.74;100.00;99783.22;5034934;28;20036;-75
2021/12/11 08:48:17;;;;;;;35.92;10.95;;;;;;;0.69;100.00;99796.94;5017472;28;20387;-75
2021/12/11 08:50:47;;;;;;;36.50;12.20;;;;;;;0.60;100.00;99802.91;5035162;28;20041;-74
2021/12/11 08:53:13;;;;;;;34.58;9.68;;;;;;;0.98;100.00;99808.16;5034858;28;20074;-75
2021/12/11 08:55:41;;;;;;;;;;;;;;;0.87;100.00;99807.25;5035043;28;20034;-75
2021/12/11 08:58:09;;;;;;;38.22;11.90;;;;;;;0.97;100.00;99812.44;5034647;28;19975;-74
2021/12/11 09:00:51;;;;;;;36.15;11.70;;;;;;;1.18;100.00;99815.91;5035061;28;20029;-74
2021/12/11 09:03:19;;;;;;;37.90;10.25;;;;;;;0.99;100.00;99812.44;5034855;28;20033;-74
2021/12/11 09:06:07;;;;;;;35.92;11.93;;;;;;;0.84;100.00;99820.13;5016783;28;20029;-74
2021/12/11 09:08:35;;;;;;;;;;;;;;;1.08;100.00;99817.63;5034916;28;20389;-74
2021/12/11 09:11:25;;;;;;;34.45;11.57;;;;;;;1.25;100.00;99818.50;5034515;28;19924;-74
2021/12/11 09:14:08;;;;;;;39.58;13.27;;;;;;;1.14;100.00;99825.34;4988194;28;20048;-74
2021/12/11 09:16:39;;;;;;;37.22;12.38;;;;;;;1.13;100.00;99833.06;5034588;28;20468;-74
2021/12/11 09:19:13;;;;;;;37.25;10.57;;;;;;;1.05;100.00;99840.81;5034083;28;20041;-74
2021/12/11 09:21:48;;;;;;;34.08;10.85;;;;;;;1.07;100.00;99839.09;5034354;28;20060;-75
2021/12/11 09:24:23;;;;;;;32.90;11.48;;;;;;;1.13;100.00;99846.81;5034618;28;20034;-75
2021/12/11 09:26:57;;;;;;;36.67;11.85;;;;;;;0.98;100.00;99855.41;5033576;28;20064;-75
2021/12/11 09:29:26;;;;;;;44.83;12.30;;;;;;;0.99;100.00;99849.38;5034460;28;20029;-76
2021/12/11 09:32:10;;;;;;;39.80;11.27;;;;;;;1.04;100.00;99851.97;5034137;28;20025;-75
2021/12/11 09:34:41;;;;;;;36.47;11.20;;;;;;;1.05;100.00;99864.00;5033917;28;20033;-76
2021/12/11 09:37:08;;;;;;;36.72;11.23;;;;;;;1.27;100.00;99847.72;5032995;28;20052;-75
2021/12/11 09:39:47;;;;;;;39.20;11.27;;;;;;;1.34;100.00;99856.31;5034186;28;20029;-75
2021/12/11 09:42:12;;;;;;;32.10;10.70;;;;;;;1.37;100.00;99858.91;5032979;28;20384;-75
2021/12/11 09:44:46;;;;;;;42.33;13.17;;;;;;;1.42;100.00;99862.34;5033698;28;20026;-75
2021/12/11 09:47:28;;;;;;;41.15;12.25;;;;;;;1.43;100.00;99865.78;5033968;28;20433;-76
2021/12/11 09:49:59;;;;;;;33.38;12.13;;;;;;;1.31;100.00;99867.50;5033850;28;20037;-77
2021/12/11 09:52:28;;;;;;;40.00;11.65;;;;;;;1.40;100.00;99870.94;5034092;28;20044;-77
2021/12/11 09:54:59;;;;;;;36.92;12.10;;;;;;;1.50;100.00;99875.22;5033248;28;20550;-77
2021/12/11 09:57:28;;;;;;;33.92;11.85;;;;;;;1.35;100.00;99873.50;5032368;28;20116;-77
2021/12/11 09:59:56;;;;;;;31.20;10.57;;;;;;;1.46;100.00;99876.13;5033671;28;20037;-77
2021/12/11 10:02:29;;;;;;;41.10;11.23;;;;;;;1.45;100.00;99874.41;5033342;28;20056;-76
2021/12/11 10:05:04;;;;;;;33.85;11.32;;;;;;;1.47;100.00;99872.69;5033286;28;20357;-76
2021/12/11 10:07:39;;;;;;;39.80;13.45;;;;;;;1.67;100.00;99873.53;5033417;28;20068;-75
2021/12/11 10:10:25;;;;;;;35.35;11.60;;;;;;;1.70;100.00;99873.53;5034265;28;20048;-75
2021/12/11 10:12:59;;;;;;;31.60;10.50;;;;;;;1.65;100.00;99876.13;5034809;28;20029;-75
2021/12/11 10:15:33;;;;;;;32.78;10.60;;;;;;;1.66;100.00;99874.41;5033727;28;20041;-75
2021/12/11 10:18:05;;;;;;;37.55;11.32;;;;;;;1.70;100.00;99886.44;5033322;28;20040;-76
2021/12/11 10:20:46;;;;;;;31.50;10.65;;;;;;;1.70;100.00;99890.72;5033870;28;20087;-75
2021/12/11 10:23:19;;;;;;;36.85;12.50;;;;;;;1.71;100.00;99895.03;5033470;28;20025;-76
2021/12/11 10:25:53;;;;;;;40.58;13.65;;;;;;;1.79;100.00;99903.66;5033639;28;20057;-76
2021/12/11 10:28:28;;;;;;;34.67;12.25;;;;;;;1.91;100.00;99904.47;5033384;28;20475;-76
2021/12/11 10:31:01;;;;;;;43.70;12.32;;;;;;;1.94;100.00;99906.22;5033033;28;20108;-76
2021/12/11 10:33:43;;;;;;;34.38;10.85;;;;;;;1.88;100.00;99904.47;5033371;28;20132;-77
2021/12/11 10:36:14;;;;;;;42.75;12.52;;;;;;;1.86;100.00;99901.03;5033448;28;20022;-76
2021/12/11 10:38:41;;;;;;;45.67;12.15;;;;;;;1.89;100.00;99902.75;5032754;28;20105;-76
2021/12/11 10:41:13;;;;;;;36.28;12.32;;;;;;;1.92;100.00;99900.19;5033198;28;20037;-76
2021/12/11 10:44:00;;;;;;;46.80;13.85;;;;;;;1.95;100.00;99903.63;5032973;28;20445;-75
2021/12/11 10:46:32;;;;;;;32.50;10.77;;;;;;;1.84;100.00;99907.09;5033361;28;20376;-76
2021/12/11 10:49:02;;;;;;;38.03;11.27;;;;;;;1.77;100.00;99913.09;5033220;28;20128;-74
2021/12/11 10:51:39;;;;;;;33.70;12.40;;;;;;;1.77;100.00;99910.53;5031440;28;20033;-75
2021/12/11 10:54:06;;;;;;;36.55;11.23;;;;;;;1.77;100.00;99913.09;5032789;28;20053;-75
2021/12/11 10:56:31;;;;;;;;;;;;;;;2.31;100.00;99907.03;5032580;28;20063;-53
2021/12/11 14:10:27;;;;;;;7.25;3.63;;;;;;;12.85;47.65;100283.47;5090803;27;20356;-69
2021/12/11 14:36:45;;;;;;;26.20;9.75;;;;;;;7.70;64.36;100372.59;5113299;27;20351;-79
2021/12/11 14:39:15;;;;;;;24.00;8.20;;;;;;;6.68;69.64;100370.69;5113055;28;20040;-78
2021/12/11 14:41:44;;;;;;;21.95;9.25;;;;;;;6.00;72.34;100380.38;5113549;28;20055;-80
2021/12/11 14:44:20;;;;;;;23.52;8.35;;;;;;;5.04;76.39;100391.25;5112648;28;20032;-79
2021/12/11 14:46:46;;;;;;;29.58;10.38;;;;;;;4.69;78.06;100396.97;5113324;28;20386;-79
2021/12/11 14:49:11;;;;;;;28.80;9.95;;;;;;;4.25;80.28;100399.97;5112342;28;20114;-81
2021/12/11 14:51:38;;;;;;;25.73;9.25;;;;;;;3.99;81.75;100408.06;5112365;28;20055;-78
2021/12/11 14:54:04;;;;;;;26.38;9.50;;;;;;;3.92;82.67;100407.06;5111766;28;20035;-78
2021/12/11 14:56:33;;;;;;;28.08;9.98;;;;;;;3.82;83.29;100417.84;5110946;28;20024;-78
2021/12/11 14:59:06;;;;;;;34.63;10.35;;;;;;;3.78;83.47;100423.66;5111513;28;20040;-77
2021/12/11 15:01:37;;;;;;;29.27;10.27;;;;;;;3.85;83.41;100430.03;5111731;28;20028;-77
2021/12/11 15:04:07;;;;;;;23.05;8.23;;;;;;;3.80;84.17;100435.81;5111821;28;20039;-77
2021/12/11 15:06:33;;;;;;;28.73;10.43;;;;;;;3.91;83.60;100433.88;5111522;28;20043;-78
2021/12/11 15:08:59;;;;;;;32.40;10.27;;;;;;;3.92;84.35;100433.72;5110988;28;20025;-77
2021/12/11 15:11:28;;;;;;;35.28;10.90;;;;;;;4.04;84.20;100439.56;5110854;28;20108;-77
2021/12/11 15:13:56;;;;;;;30.35;9.48;;;;;;;3.91;84.06;100441.88;5062938;27;20079;-78
2021/12/11 15:16:22;;;;;;;28.48;9.98;;;;;;;3.80;84.52;100450.97;5090006;28;20029;-77
2021/12/11 15:18:50;;;;;;;36.45;10.50;;;;;;;3.76;84.45;100462.97;5090368;28;20036;-77
2021/12/11 15:21:19;;;;;;;34.85;11.23;;;;;;;3.73;84.93;100461.47;5090063;28;20036;-76
2021/12/11 15:23:53;;;;;;;33.00;10.63;;;;;;;3.68;84.59;100452.28;5089766;28;20111;-76